sensor_id;sensor_type;location;lat;lon;timestamp;P1;durP1;ratioP1;P2;durP2;ratioP2
33453;SDS011;39400;49.744;7.012;2022-08-03T00:00:28;4.18;;;2.45;;
33453;SDS011;39400;49.744;7.012;2022-08-03T00:02:55;3.70;;;2.47;;
33453;SDS011;39400;49.744;7.012;2022-08-03T00:05:22;2.45;;;2.03;;
33453;SDS011;39400;49.744;7.012;2022-08-03T00:07:49;2.85;;;1.77;;
33453;SDS011;39400;49.744;7.012;2022-08-03T00:12:45;1.98;;;1.70;;
33453;SDS011;39400;49.744;7.012;2022-08-03T00:15:12;3.35;;;2.70;;
33453;SDS011;39400;49.744;7.012;2022-08-03T00:17:43;4.80;;;2.35;;
33453;SDS011;39400;49.744;7.012;2022-08-03T00:20:22;4.97;;;1.58;;
33453;SDS011;39400;49.744;7.012;2022-08-03T00:22:50;2.20;;;1.73;;
33453;SDS011;39400;49.744;7.012;2022-08-03T00:25:17;4.47;;;2.22;;
33453;SDS011;39400;49.744;7.012;2022-08-03T00:27:45;3.85;;;1.60;;
33453;SDS011;39400;49.744;7.012;2022-08-03T00:32:43;2.25;;;1.80;;
33453;SDS011;39400;49.744;7.012;2022-08-03T00:35:11;2.83;;;1.67;;
33453;SDS011;39400;49.744;7.012;2022-08-03T00:37:58;2.05;;;1.77;;
33453;SDS011;39400;49.744;7.012;2022-08-03T00:40:26;3.30;;;1.83;;
33453;SDS011;39400;49.744;7.012;2022-08-03T00:42:54;2.00;;;1.55;;
33453;SDS011;39400;49.744;7.012;2022-08-03T00:45:28;2.70;;;1.73;;
33453;SDS011;39400;49.744;7.012;2022-08-03T00:47:57;5.20;;;1.98;;
33453;SDS011;39400;49.744;7.012;2022-08-03T00:50:26;2.80;;;1.40;;
33453;SDS011;39400;49.744;7.012;2022-08-03T00:52:56;1.65;;;1.30;;
33453;SDS011;39400;49.744;7.012;2022-08-03T00:55:25;2.97;;;1.50;;
33453;SDS011;39400;49.744;7.012;2022-08-03T00:57:52;1.38;;;1.27;;
33453;SDS011;39400;49.744;7.012;2022-08-03T01:00:21;1.70;;;1.35;;
33453;SDS011;39400;49.744;7.012;2022-08-03T01:02:51;2.35;;;1.50;;
33453;SDS011;39400;49.744;7.012;2022-08-03T01:05:19;4.35;;;1.75;;
33453;SDS011;39400;49.744;7.012;2022-08-03T01:16:08;1.75;;;1.65;;
33453;SDS011;39400;49.744;7.012;2022-08-03T01:18:44;2.55;;;1.88;;
33453;SDS011;39400;49.744;7.012;2022-08-03T01:21:43;2.13;;;1.40;;
33453;SDS011;39400;49.744;7.012;2022-08-03T01:27:11;2.60;;;2.00;;
33453;SDS011;39400;49.744;7.012;2022-08-03T01:32:39;2.38;;;1.95;;
33453;SDS011;39400;49.744;7.012;2022-08-03T01:35:46;3.05;;;2.15;;
33453;SDS011;39400;49.744;7.012;2022-08-03T01:38:30;3.88;;;2.00;;
33453;SDS011;39400;49.744;7.012;2022-08-03T01:44:00;2.17;;;1.70;;
33453;SDS011;39400;49.744;7.012;2022-08-03T01:46:49;2.10;;;1.75;;
33453;SDS011;39400;49.744;7.012;2022-08-03T01:49:17;2.70;;;1.98;;
33453;SDS011;39400;49.744;7.012;2022-08-03T01:51:44;6.25;;;1.98;;
33453;SDS011;39400;49.744;7.012;2022-08-03T01:54:33;3.35;;;1.90;;
33453;SDS011;39400;49.744;7.012;2022-08-03T01:57:03;4.88;;;2.00;;
33453;SDS011;39400;49.744;7.012;2022-08-03T01:59:32;2.28;;;2.03;;
33453;SDS011;39400;49.744;7.012;2022-08-03T02:02:02;5.03;;;2.03;;
33453;SDS011;39400;49.744;7.012;2022-08-03T02:04:51;3.13;;;1.80;;
33453;SDS011;39400;49.744;7.012;2022-08-03T02:07:21;2.63;;;1.60;;
33453;SDS011;39400;49.744;7.012;2022-08-03T02:09:50;2.42;;;1.85;;
33453;SDS011;39400;49.744;7.012;2022-08-03T02:12:18;4.97;;;2.05;;
33453;SDS011;39400;49.744;7.012;2022-08-03T02:14:48;5.07;;;2.15;;
33453;SDS011;39400;49.744;7.012;2022-08-03T02:17:16;1.93;;;1.73;;
33453;SDS011;39400;49.744;7.012;2022-08-03T02:20:05;2.90;;;1.80;;
33453;SDS011;39400;49.744;7.012;2022-08-03T02:22:34;2.65;;;1.63;;
33453;SDS011;39400;49.744;7.012;2022-08-03T02:25:06;2.70;;;1.80;;
33453;SDS011;39400;49.744;7.012;2022-08-03T02:27:34;2.90;;;1.67;;
33453;SDS011;39400;49.744;7.012;2022-08-03T02:30:09;4.00;;;1.50;;
33453;SDS011;39400;49.744;7.012;2022-08-03T02:32:40;2.33;;;1.77;;
33453;SDS011;39400;49.744;7.012;2022-08-03T02:35:10;5.95;;;1.90;;
33453;SDS011;39400;49.744;7.012;2022-08-03T02:37:41;4.28;;;1.98;;
33453;SDS011;39400;49.744;7.012;2022-08-03T02:40:15;4.80;;;1.60;;
33453;SDS011;39400;49.744;7.012;2022-08-03T02:42:45;4.90;;;2.10;;
33453;SDS011;39400;49.744;7.012;2022-08-03T02:45:16;4.85;;;2.15;;
33453;SDS011;39400;49.744;7.012;2022-08-03T02:47:45;4.35;;;1.60;;
33453;SDS011;39400;49.744;7.012;2022-08-03T02:50:20;2.60;;;1.73;;
33453;SDS011;39400;49.744;7.012;2022-08-03T02:55:18;2.47;;;1.83;;
33453;SDS011;39400;49.744;7.012;2022-08-03T02:57:47;2.17;;;1.75;;
33453;SDS011;39400;49.744;7.012;2022-08-03T03:00:15;2.53;;;1.70;;
33453;SDS011;39400;49.744;7.012;2022-08-03T03:02:55;2.40;;;1.57;;
33453;SDS011;39400;49.744;7.012;2022-08-03T03:05:25;1.63;;;1.38;;
33453;SDS011;39400;49.744;7.012;2022-08-03T03:08:16;2.55;;;1.80;;
33453;SDS011;39400;49.744;7.012;2022-08-03T03:10:54;2.10;;;1.70;;
33453;SDS011;39400;49.744;7.012;2022-08-03T03:13:26;2.53;;;1.73;;
33453;SDS011;39400;49.744;7.012;2022-08-03T03:15:55;4.40;;;1.73;;
33453;SDS011;39400;49.744;7.012;2022-08-03T03:18:26;2.38;;;2.00;;
33453;SDS011;39400;49.744;7.012;2022-08-03T03:20:54;2.67;;;2.38;;
33453;SDS011;39400;49.744;7.012;2022-08-03T03:23:23;3.78;;;2.33;;
33453;SDS011;39400;49.744;7.012;2022-08-03T03:25:52;7.68;;;2.72;;
33453;SDS011;39400;49.744;7.012;2022-08-03T03:30:50;4.65;;;2.35;;
33453;SDS011;39400;49.744;7.012;2022-08-03T03:35:47;5.47;;;2.10;;
33453;SDS011;39400;49.744;7.012;2022-08-03T03:38:15;3.15;;;2.03;;
33453;SDS011;39400;49.744;7.012;2022-08-03T03:40:42;4.63;;;2.38;;
33453;SDS011;39400;49.744;7.012;2022-08-03T03:43:10;3.03;;;2.17;;
33453;SDS011;39400;49.744;7.012;2022-08-03T03:45:41;3.10;;;1.90;;
33453;SDS011;39400;49.744;7.012;2022-08-03T03:48:09;3.25;;;2.20;;
33453;SDS011;39400;49.744;7.012;2022-08-03T03:50:36;5.43;;;3.65;;
33453;SDS011;39400;49.744;7.012;2022-08-03T03:53:10;3.20;;;2.38;;
33453;SDS011;39400;49.744;7.012;2022-08-03T03:55:38;4.15;;;1.90;;
33453;SDS011;39400;49.744;7.012;2022-08-03T03:58:26;2.60;;;2.00;;
33453;SDS011;39400;49.744;7.012;2022-08-03T04:00:53;2.45;;;2.10;;
33453;SDS011;39400;49.744;7.012;2022-08-03T04:03:21;4.63;;;1.90;;
33453;SDS011;39400;49.744;7.012;2022-08-03T04:05:48;3.83;;;1.83;;
33453;SDS011;39400;49.744;7.012;2022-08-03T04:08:34;2.00;;;1.80;;
33453;SDS011;39400;49.744;7.012;2022-08-03T04:11:30;1.95;;;1.75;;
33453;SDS011;39400;49.744;7.012;2022-08-03T04:14:05;2.58;;;1.52;;
33453;SDS011;39400;49.744;7.012;2022-08-03T04:16:40;1.92;;;1.45;;
33453;SDS011;39400;49.744;7.012;2022-08-03T04:19:13;5.20;;;1.90;;
33453;SDS011;39400;49.744;7.012;2022-08-03T04:21:49;2.17;;;1.65;;
33453;SDS011;39400;49.744;7.012;2022-08-03T04:24:18;2.95;;;2.13;;
33453;SDS011;39400;49.744;7.012;2022-08-03T04:26:52;3.45;;;2.20;;
33453;SDS011;39400;49.744;7.012;2022-08-03T04:29:20;3.07;;;2.20;;
33453;SDS011;39400;49.744;7.012;2022-08-03T04:31:48;4.38;;;1.90;;
33453;SDS011;39400;49.744;7.012;2022-08-03T04:36:46;6.00;;;2.25;;
33453;SDS011;39400;49.744;7.012;2022-08-03T04:39:22;3.65;;;2.30;;
33453;SDS011;39400;49.744;7.012;2022-08-03T04:41:54;3.05;;;2.10;;
33453;SDS011;39400;49.744;7.012;2022-08-03T04:44:39;3.75;;;2.60;;
33453;SDS011;39400;49.744;7.012;2022-08-03T04:47:08;2.42;;;2.22;;
33453;SDS011;39400;49.744;7.012;2022-08-03T04:49:35;4.85;;;2.03;;
33453;SDS011;39400;49.744;7.012;2022-08-03T04:52:04;5.45;;;2.25;;
33453;SDS011;39400;49.744;7.012;2022-08-03T04:54:40;2.72;;;2.10;;
33453;SDS011;39400;49.744;7.012;2022-08-03T04:57:11;3.20;;;2.30;;
33453;SDS011;39400;49.744;7.012;2022-08-03T04:59:49;2.75;;;2.35;;
33453;SDS011;39400;49.744;7.012;2022-08-03T05:02:27;4.35;;;2.25;;
33453;SDS011;39400;49.744;7.012;2022-08-03T05:04:55;3.58;;;2.05;;
33453;SDS011;39400;49.744;7.012;2022-08-03T05:07:22;2.95;;;2.20;;
33453;SDS011;39400;49.744;7.012;2022-08-03T05:09:50;3.80;;;2.40;;
33453;SDS011;39400;49.744;7.012;2022-08-03T05:12:29;2.90;;;2.23;;
33453;SDS011;39400;49.744;7.012;2022-08-03T05:14:59;2.33;;;1.70;;
33453;SDS011;39400;49.744;7.012;2022-08-03T05:17:27;3.15;;;2.15;;
33453;SDS011;39400;49.744;7.012;2022-08-03T05:19:54;2.38;;;1.90;;
33453;SDS011;39400;49.744;7.012;2022-08-03T05:22:21;4.60;;;1.95;;
33453;SDS011;39400;49.744;7.012;2022-08-03T05:24:49;4.15;;;1.50;;
33453;SDS011;39400;49.744;7.012;2022-08-03T05:27:17;2.83;;;1.80;;
33453;SDS011;39400;49.744;7.012;2022-08-03T05:29:47;13.25;;;2.25;;
33453;SDS011;39400;49.744;7.012;2022-08-03T05:32:16;2.95;;;2.05;;
33453;SDS011;39400;49.744;7.012;2022-08-03T05:34:44;3.67;;;2.45;;
33453;SDS011;39400;49.744;7.012;2022-08-03T05:37:11;5.00;;;1.63;;
33453;SDS011;39400;49.744;7.012;2022-08-03T05:39:38;3.13;;;1.88;;
33453;SDS011;39400;49.744;7.012;2022-08-03T05:42:05;4.55;;;2.15;;
33453;SDS011;39400;49.744;7.012;2022-08-03T05:44:33;3.88;;;1.90;;
33453;SDS011;39400;49.744;7.012;2022-08-03T05:47:00;2.90;;;1.60;;
33453;SDS011;39400;49.744;7.012;2022-08-03T05:49:27;3.63;;;1.92;;
33453;SDS011;39400;49.744;7.012;2022-08-03T05:51:54;2.47;;;1.90;;
33453;SDS011;39400;49.744;7.012;2022-08-03T05:54:41;1.90;;;1.67;;
33453;SDS011;39400;49.744;7.012;2022-08-03T05:57:23;2.95;;;1.60;;
33453;SDS011;39400;49.744;7.012;2022-08-03T05:59:51;3.72;;;1.30;;
33453;SDS011;39400;49.744;7.012;2022-08-03T06:02:25;2.40;;;1.92;;
33453;SDS011;39400;49.744;7.012;2022-08-03T06:04:52;2.33;;;2.00;;
33453;SDS011;39400;49.744;7.012;2022-08-03T06:07:19;2.22;;;1.75;;
33453;SDS011;39400;49.744;7.012;2022-08-03T06:09:47;2.08;;;1.63;;
33453;SDS011;39400;49.744;7.012;2022-08-03T06:12:34;1.60;;;1.50;;
33453;SDS011;39400;49.744;7.012;2022-08-03T06:15:02;6.10;;;1.77;;
33453;SDS011;39400;49.744;7.012;2022-08-03T06:17:30;2.20;;;1.80;;
33453;SDS011;39400;49.744;7.012;2022-08-03T06:20:04;2.35;;;1.35;;
33453;SDS011;39400;49.744;7.012;2022-08-03T06:22:31;2.92;;;1.80;;
33453;SDS011;39400;49.744;7.012;2022-08-03T06:24:59;2.72;;;1.60;;
33453;SDS011;39400;49.744;7.012;2022-08-03T06:27:34;2.30;;;1.48;;
33453;SDS011;39400;49.744;7.012;2022-08-03T06:30:03;3.10;;;1.60;;
33453;SDS011;39400;49.744;7.012;2022-08-03T06:32:36;3.28;;;1.60;;
33453;SDS011;39400;49.744;7.012;2022-08-03T06:35:05;2.80;;;1.48;;
33453;SDS011;39400;49.744;7.012;2022-08-03T06:37:43;4.13;;;1.60;;
33453;SDS011;39400;49.744;7.012;2022-08-03T06:40:11;2.78;;;1.77;;
33453;SDS011;39400;49.744;7.012;2022-08-03T06:42:47;3.30;;;2.00;;
33453;SDS011;39400;49.744;7.012;2022-08-03T06:45:16;3.80;;;1.60;;
33453;SDS011;39400;49.744;7.012;2022-08-03T06:47:43;2.80;;;1.90;;
33453;SDS011;39400;49.744;7.012;2022-08-03T06:50:10;4.97;;;1.83;;
33453;SDS011;39400;49.744;7.012;2022-08-03T06:52:43;2.28;;;1.58;;
33453;SDS011;39400;49.744;7.012;2022-08-03T06:55:11;5.10;;;2.35;;
33453;SDS011;39400;49.744;7.012;2022-08-03T06:57:38;6.60;;;1.77;;
33453;SDS011;39400;49.744;7.012;2022-08-03T07:00:05;2.08;;;1.63;;
33453;SDS011;39400;49.744;7.012;2022-08-03T07:02:38;2.78;;;1.77;;
33453;SDS011;39400;49.744;7.012;2022-08-03T07:05:06;2.05;;;1.52;;
33453;SDS011;39400;49.744;7.012;2022-08-03T07:07:34;4.17;;;1.83;;
33453;SDS011;39400;49.744;7.012;2022-08-03T07:10:02;1.90;;;1.52;;
33453;SDS011;39400;49.744;7.012;2022-08-03T07:12:31;7.40;;;1.75;;
33453;SDS011;39400;49.744;7.012;2022-08-03T07:14:58;6.85;;;1.60;;
33453;SDS011;39400;49.744;7.012;2022-08-03T07:17:29;1.35;;;1.25;;
33453;SDS011;39400;49.744;7.012;2022-08-03T07:19:57;3.10;;;1.77;;
33453;SDS011;39400;49.744;7.012;2022-08-03T07:22:25;4.55;;;1.52;;
33453;SDS011;39400;49.744;7.012;2022-08-03T07:24:52;4.20;;;1.45;;
33453;SDS011;39400;49.744;7.012;2022-08-03T07:27:20;2.78;;;1.58;;
33453;SDS011;39400;49.744;7.012;2022-08-03T07:29:47;1.67;;;1.50;;
33453;SDS011;39400;49.744;7.012;2022-08-03T07:32:14;2.05;;;1.33;;
33453;SDS011;39400;49.744;7.012;2022-08-03T07:34:41;3.85;;;1.48;;
33453;SDS011;39400;49.744;7.012;2022-08-03T07:37:09;2.40;;;1.50;;
33453;SDS011;39400;49.744;7.012;2022-08-03T07:39:37;4.05;;;1.80;;
33453;SDS011;39400;49.744;7.012;2022-08-03T07:42:04;2.38;;;1.50;;
33453;SDS011;39400;49.744;7.012;2022-08-03T07:44:31;3.70;;;1.90;;
33453;SDS011;39400;49.744;7.012;2022-08-03T07:46:58;2.33;;;1.55;;
33453;SDS011;39400;49.744;7.012;2022-08-03T07:49:29;4.00;;;1.45;;
33453;SDS011;39400;49.744;7.012;2022-08-03T07:51:57;4.07;;;1.30;;
33453;SDS011;39400;49.744;7.012;2022-08-03T07:54:43;2.42;;;1.63;;
33453;SDS011;39400;49.744;7.012;2022-08-03T07:57:10;5.88;;;1.77;;
33453;SDS011;39400;49.744;7.012;2022-08-03T07:59:38;5.22;;;1.58;;
33453;SDS011;39400;49.744;7.012;2022-08-03T08:02:25;1.60;;;1.23;;
33453;SDS011;39400;49.744;7.012;2022-08-03T08:04:53;2.22;;;1.42;;
33453;SDS011;39400;49.744;7.012;2022-08-03T08:07:20;3.83;;;1.55;;
33453;SDS011;39400;49.744;7.012;2022-08-03T08:09:48;1.70;;;1.30;;
33453;SDS011;39400;49.744;7.012;2022-08-03T08:12:15;1.52;;;1.10;;
33453;SDS011;39400;49.744;7.012;2022-08-03T08:14:42;4.07;;;2.00;;
33453;SDS011;39400;49.744;7.012;2022-08-03T08:17:12;1.45;;;1.35;;
33453;SDS011;39400;49.744;7.012;2022-08-03T08:19:39;1.40;;;1.00;;
33453;SDS011;39400;49.744;7.012;2022-08-03T08:22:17;2.92;;;1.33;;
33453;SDS011;39400;49.744;7.012;2022-08-03T08:24:56;4.38;;;1.33;;
33453;SDS011;39400;49.744;7.012;2022-08-03T08:29:52;3.53;;;1.48;;
33453;SDS011;39400;49.744;7.012;2022-08-03T08:32:22;2.22;;;1.50;;
33453;SDS011;39400;49.744;7.012;2022-08-03T08:34:49;5.40;;;1.40;;
33453;SDS011;39400;49.744;7.012;2022-08-03T08:37:16;2.65;;;1.40;;
33453;SDS011;39400;49.744;7.012;2022-08-03T08:39:43;2.80;;;1.35;;
33453;SDS011;39400;49.744;7.012;2022-08-03T08:42:10;2.10;;;1.42;;
33453;SDS011;39400;49.744;7.012;2022-08-03T08:44:38;1.92;;;1.40;;
33453;SDS011;39400;49.744;7.012;2022-08-03T08:47:05;1.92;;;1.63;;
33453;SDS011;39400;49.744;7.012;2022-08-03T08:49:34;1.60;;;1.20;;
33453;SDS011;39400;49.744;7.012;2022-08-03T08:52:06;2.63;;;1.02;;
33453;SDS011;39400;49.744;7.012;2022-08-03T08:54:51;2.83;;;1.45;;
33453;SDS011;39400;49.744;7.012;2022-08-03T08:57:23;2.25;;;1.35;;
33453;SDS011;39400;49.744;7.012;2022-08-03T09:00:09;2.60;;;1.42;;
33453;SDS011;39400;49.744;7.012;2022-08-03T09:02:41;5.60;;;1.73;;
33453;SDS011;39400;49.744;7.012;2022-08-03T09:07:43;1.98;;;1.25;;
33453;SDS011;39400;49.744;7.012;2022-08-03T09:10:12;1.52;;;1.17;;
33453;SDS011;39400;49.744;7.012;2022-08-03T09:12:42;1.40;;;1.20;;
33453;SDS011;39400;49.744;7.012;2022-08-03T09:17:43;1.95;;;0.90;;
33453;SDS011;39400;49.744;7.012;2022-08-03T09:20:17;1.60;;;1.10;;
33453;SDS011;39400;49.744;7.012;2022-08-03T09:25:36;4.55;;;1.48;;
33453;SDS011;39400;49.744;7.012;2022-08-03T09:30:40;4.18;;;1.48;;
33453;SDS011;39400;49.744;7.012;2022-08-03T09:33:09;2.45;;;1.63;;
33453;SDS011;39400;49.744;7.012;2022-08-03T09:35:44;2.63;;;1.40;;
33453;SDS011;39400;49.744;7.012;2022-08-03T09:38:23;3.35;;;1.17;;
33453;SDS011;39400;49.744;7.012;2022-08-03T09:40:54;2.15;;;1.40;;
33453;SDS011;39400;49.744;7.012;2022-08-03T09:43:27;3.13;;;1.48;;
33453;SDS011;39400;49.744;7.012;2022-08-03T09:46:02;4.10;;;1.40;;
33453;SDS011;39400;49.744;7.012;2022-08-03T09:48:30;2.22;;;1.27;;
33453;SDS011;39400;49.744;7.012;2022-08-03T09:51:02;1.58;;;1.10;;
33453;SDS011;39400;49.744;7.012;2022-08-03T09:53:42;1.60;;;1.08;;
33453;SDS011;39400;49.744;7.012;2022-08-03T09:56:42;2.55;;;1.90;;
33453;SDS011;39400;49.744;7.012;2022-08-03T09:59:10;4.32;;;1.52;;
33453;SDS011;39400;49.744;7.012;2022-08-03T10:01:39;2.20;;;1.30;;
33453;SDS011;39400;49.744;7.012;2022-08-03T10:04:16;2.60;;;1.65;;
33453;SDS011;39400;49.744;7.012;2022-08-03T10:06:44;3.45;;;1.30;;
33453;SDS011;39400;49.744;7.012;2022-08-03T10:09:13;2.00;;;1.50;;
33453;SDS011;39400;49.744;7.012;2022-08-03T10:11:42;3.22;;;1.52;;
33453;SDS011;39400;49.744;7.012;2022-08-03T10:14:10;2.05;;;1.30;;
33453;SDS011;39400;49.744;7.012;2022-08-03T10:16:46;2.67;;;1.50;;
33453;SDS011;39400;49.744;7.012;2022-08-03T10:19:14;13.20;;;1.73;;
33453;SDS011;39400;49.744;7.012;2022-08-03T10:21:45;1.23;;;1.13;;
33453;SDS011;39400;49.744;7.012;2022-08-03T10:24:16;1.25;;;1.15;;
33453;SDS011;39400;49.744;7.012;2022-08-03T10:26:45;1.80;;;1.50;;
33453;SDS011;39400;49.744;7.012;2022-08-03T10:29:20;1.45;;;1.35;;
33453;SDS011;39400;49.744;7.012;2022-08-03T10:31:51;5.07;;;1.50;;
33453;SDS011;39400;49.744;7.012;2022-08-03T10:34:27;2.20;;;1.20;;
33453;SDS011;39400;49.744;7.012;2022-08-03T10:37:00;1.38;;;1.20;;
33453;SDS011;39400;49.744;7.012;2022-08-03T10:39:33;2.22;;;1.13;;
33453;SDS011;39400;49.744;7.012;2022-08-03T10:42:02;1.80;;;1.10;;
33453;SDS011;39400;49.744;7.012;2022-08-03T10:44:36;3.30;;;1.50;;
33453;SDS011;39400;49.744;7.012;2022-08-03T10:47:07;3.97;;;1.05;;
33453;SDS011;39400;49.744;7.012;2022-08-03T10:49:35;1.52;;;1.23;;
33453;SDS011;39400;49.744;7.012;2022-08-03T10:52:04;2.67;;;1.57;;
33453;SDS011;39400;49.744;7.012;2022-08-03T10:54:52;1.48;;;1.20;;
33453;SDS011;39400;49.744;7.012;2022-08-03T11:00:14;3.70;;;1.23;;
33453;SDS011;39400;49.744;7.012;2022-08-03T11:05:40;1.67;;;1.20;;
33453;SDS011;39400;49.744;7.012;2022-08-03T11:08:18;1.98;;;1.20;;
33453;SDS011;39400;49.744;7.012;2022-08-03T11:11:34;3.72;;;1.40;;
33453;SDS011;39400;49.744;7.012;2022-08-03T11:13:59;4.15;;;1.40;;
33453;SDS011;39400;49.744;7.012;2022-08-03T11:16:26;2.00;;;1.40;;
33453;SDS011;39400;49.744;7.012;2022-08-03T11:18:55;2.60;;;1.63;;
33453;SDS011;39400;49.744;7.012;2022-08-03T11:24:09;4.40;;;1.60;;
33453;SDS011;39400;49.744;7.012;2022-08-03T11:26:36;2.88;;;1.50;;
33453;SDS011;39400;49.744;7.012;2022-08-03T11:31:56;2.40;;;1.52;;
33453;SDS011;39400;49.744;7.012;2022-08-03T11:34:24;3.38;;;1.60;;
33453;SDS011;39400;49.744;7.012;2022-08-03T11:39:47;1.85;;;1.17;;
33453;SDS011;39400;49.744;7.012;2022-08-03T11:44:49;1.23;;;1.13;;
33453;SDS011;39400;49.744;7.012;2022-08-03T11:47:17;2.03;;;1.70;;
33453;SDS011;39400;49.744;7.012;2022-08-03T11:49:47;1.83;;;1.00;;
33453;SDS011;39400;49.744;7.012;2022-08-03T11:52:15;1.93;;;1.53;;
33453;SDS011;39400;49.744;7.012;2022-08-03T11:54:43;5.38;;;1.63;;
33453;SDS011;39400;49.744;7.012;2022-08-03T11:57:10;4.47;;;1.40;;
33453;SDS011;39400;49.744;7.012;2022-08-03T11:59:38;2.35;;;1.15;;
33453;SDS011;39400;49.744;7.012;2022-08-03T12:02:08;1.65;;;1.27;;
33453;SDS011;39400;49.744;7.012;2022-08-03T12:04:53;3.90;;;1.30;;
33453;SDS011;39400;49.744;7.012;2022-08-03T12:07:27;1.88;;;1.50;;
33453;SDS011;39400;49.744;7.012;2022-08-03T12:10:15;6.28;;;1.73;;
33453;SDS011;39400;49.744;7.012;2022-08-03T12:12:43;3.42;;;1.42;;
33453;SDS011;39400;49.744;7.012;2022-08-03T12:15:12;5.63;;;1.45;;
33453;SDS011;39400;49.744;7.012;2022-08-03T12:17:40;2.63;;;1.75;;
33453;SDS011;39400;49.744;7.012;2022-08-03T12:20:08;1.50;;;1.40;;
33453;SDS011;39400;49.744;7.012;2022-08-03T12:22:36;4.88;;;1.50;;
33453;SDS011;39400;49.744;7.012;2022-08-03T12:25:06;1.75;;;1.60;;
33453;SDS011;39400;49.744;7.012;2022-08-03T12:30:02;1.83;;;1.38;;
33453;SDS011;39400;49.744;7.012;2022-08-03T12:32:30;2.13;;;1.60;;
33453;SDS011;39400;49.744;7.012;2022-08-03T12:34:58;2.80;;;1.05;;
33453;SDS011;39400;49.744;7.012;2022-08-03T12:37:27;1.27;;;1.17;;
33453;SDS011;39400;49.744;7.012;2022-08-03T12:39:56;2.28;;;1.30;;
33453;SDS011;39400;49.744;7.012;2022-08-03T12:42:35;1.80;;;1.38;;
33453;SDS011;39400;49.744;7.012;2022-08-03T12:52:58;3.05;;;1.23;;
33453;SDS011;39400;49.744;7.012;2022-08-03T12:55:26;1.20;;;1.10;;
33453;SDS011;39400;49.744;7.012;2022-08-03T12:58:34;2.55;;;1.55;;
33453;SDS011;39400;49.744;7.012;2022-08-03T13:01:03;1.48;;;0.90;;
33453;SDS011;39400;49.744;7.012;2022-08-03T13:03:39;1.88;;;1.23;;
33453;SDS011;39400;49.744;7.012;2022-08-03T13:06:13;3.17;;;1.73;;
33453;SDS011;39400;49.744;7.012;2022-08-03T13:08:41;4.63;;;1.77;;
33453;SDS011;39400;49.744;7.012;2022-08-03T13:11:17;2.00;;;1.40;;
33453;SDS011;39400;49.744;7.012;2022-08-03T13:13:48;2.15;;;1.50;;
33453;SDS011;39400;49.744;7.012;2022-08-03T13:16:16;4.10;;;1.45;;
33453;SDS011;39400;49.744;7.012;2022-08-03T13:18:45;2.13;;;1.45;;
33453;SDS011;39400;49.744;7.012;2022-08-03T13:21:14;2.80;;;1.30;;
33453;SDS011;39400;49.744;7.012;2022-08-03T13:23:42;7.05;;;1.63;;
33453;SDS011;39400;49.744;7.012;2022-08-03T13:26:10;1.65;;;1.55;;
33453;SDS011;39400;49.744;7.012;2022-08-03T13:28:38;1.52;;;1.33;;
33453;SDS011;39400;49.744;7.012;2022-08-03T13:31:05;3.85;;;1.38;;
33453;SDS011;39400;49.744;7.012;2022-08-03T13:33:33;1.58;;;1.13;;
33453;SDS011;39400;49.744;7.012;2022-08-03T13:36:00;1.52;;;1.25;;
33453;SDS011;39400;49.744;7.012;2022-08-03T13:38:27;2.15;;;1.30;;
33453;SDS011;39400;49.744;7.012;2022-08-03T13:40:54;2.45;;;1.45;;
33453;SDS011;39400;49.744;7.012;2022-08-03T13:43:21;4.50;;;1.38;;
33453;SDS011;39400;49.744;7.012;2022-08-03T13:45:48;3.13;;;1.50;;
33453;SDS011;39400;49.744;7.012;2022-08-03T13:48:22;5.43;;;1.30;;
33453;SDS011;39400;49.744;7.012;2022-08-03T13:51:03;4.65;;;1.10;;
33453;SDS011;39400;49.744;7.012;2022-08-03T13:53:49;1.98;;;1.30;;
33453;SDS011;39400;49.744;7.012;2022-08-03T13:56:17;2.88;;;1.30;;
33453;SDS011;39400;49.744;7.012;2022-08-03T13:58:44;1.50;;;1.40;;
33453;SDS011;39400;49.744;7.012;2022-08-03T14:01:11;1.85;;;1.48;;
33453;SDS011;39400;49.744;7.012;2022-08-03T14:03:38;4.57;;;0.95;;
33453;SDS011;39400;49.744;7.012;2022-08-03T14:06:05;2.40;;;1.38;;
33453;SDS011;39400;49.744;7.012;2022-08-03T14:08:33;1.65;;;1.25;;
33453;SDS011;39400;49.744;7.012;2022-08-03T14:11:00;1.80;;;1.33;;
33453;SDS011;39400;49.744;7.012;2022-08-03T14:13:27;1.85;;;1.27;;
33453;SDS011;39400;49.744;7.012;2022-08-03T14:15:54;3.17;;;1.67;;
33453;SDS011;39400;49.744;7.012;2022-08-03T14:18:22;6.73;;;1.80;;
33453;SDS011;39400;49.744;7.012;2022-08-03T14:21:00;5.80;;;1.65;;
33453;SDS011;39400;49.744;7.012;2022-08-03T14:23:32;1.65;;;1.42;;
33453;SDS011;39400;49.744;7.012;2022-08-03T14:26:00;2.33;;;1.35;;
33453;SDS011;39400;49.744;7.012;2022-08-03T14:28:27;4.35;;;1.40;;
33453;SDS011;39400;49.744;7.012;2022-08-03T14:30:55;4.70;;;1.50;;
33453;SDS011;39400;49.744;7.012;2022-08-03T14:33:22;2.20;;;1.42;;
33453;SDS011;39400;49.744;7.012;2022-08-03T14:35:50;3.28;;;1.40;;
33453;SDS011;39400;49.744;7.012;2022-08-03T14:38:18;1.42;;;1.33;;
33453;SDS011;39400;49.744;7.012;2022-08-03T14:40:46;1.80;;;1.30;;
33453;SDS011;39400;49.744;7.012;2022-08-03T14:43:13;2.85;;;1.40;;
33453;SDS011;39400;49.744;7.012;2022-08-03T14:45:42;2.53;;;1.40;;
33453;SDS011;39400;49.744;7.012;2022-08-03T14:48:09;2.30;;;1.60;;
33453;SDS011;39400;49.744;7.012;2022-08-03T14:50:58;2.97;;;1.63;;
33453;SDS011;39400;49.744;7.012;2022-08-03T14:53:25;5.47;;;1.63;;
33453;SDS011;39400;49.744;7.012;2022-08-03T14:55:52;2.17;;;1.35;;
33453;SDS011;39400;49.744;7.012;2022-08-03T14:58:20;1.60;;;1.48;;
33453;SDS011;39400;49.744;7.012;2022-08-03T15:00:51;3.15;;;1.35;;
33453;SDS011;39400;49.744;7.012;2022-08-03T15:03:20;2.55;;;1.55;;
33453;SDS011;39400;49.744;7.012;2022-08-03T15:05:54;1.50;;;1.40;;
33453;SDS011;39400;49.744;7.012;2022-08-03T15:08:23;1.55;;;1.20;;
33453;SDS011;39400;49.744;7.012;2022-08-03T15:10:51;1.77;;;1.50;;
33453;SDS011;39400;49.744;7.012;2022-08-03T15:13:20;3.50;;;1.40;;
33453;SDS011;39400;49.744;7.012;2022-08-03T15:15:47;4.43;;;1.70;;
33453;SDS011;39400;49.744;7.012;2022-08-03T15:18:16;1.75;;;1.63;;
33453;SDS011;39400;49.744;7.012;2022-08-03T15:20:43;1.60;;;1.50;;
33453;SDS011;39400;49.744;7.012;2022-08-03T15:23:13;1.30;;;1.20;;
33453;SDS011;39400;49.744;7.012;2022-08-03T15:25:44;2.42;;;1.50;;
33453;SDS011;39400;49.744;7.012;2022-08-03T15:28:32;2.53;;;1.55;;
33453;SDS011;39400;49.744;7.012;2022-08-03T15:30:59;1.60;;;1.50;;
33453;SDS011;39400;49.744;7.012;2022-08-03T15:33:27;2.00;;;1.70;;
33453;SDS011;39400;49.744;7.012;2022-08-03T15:35:55;9.95;;;2.10;;
33453;SDS011;39400;49.744;7.012;2022-08-03T15:40:52;2.42;;;2.22;;
33453;SDS011;39400;49.744;7.012;2022-08-03T15:43:20;6.30;;;2.53;;
33453;SDS011;39400;49.744;7.012;2022-08-03T15:45:49;6.47;;;2.33;;
33453;SDS011;39400;49.744;7.012;2022-08-03T15:48:36;6.43;;;2.03;;
33453;SDS011;39400;49.744;7.012;2022-08-03T15:51:03;4.15;;;2.33;;
33453;SDS011;39400;49.744;7.012;2022-08-03T15:53:31;3.10;;;2.42;;
33453;SDS011;39400;49.744;7.012;2022-08-03T15:55:59;2.42;;;1.73;;
33453;SDS011;39400;49.744;7.012;2022-08-03T15:58:32;6.18;;;1.80;;
33453;SDS011;39400;49.744;7.012;2022-08-03T16:01:19;2.03;;;1.90;;
33453;SDS011;39400;49.744;7.012;2022-08-03T16:03:47;4.45;;;2.05;;
33453;SDS011;39400;49.744;7.012;2022-08-03T16:06:14;2.67;;;1.33;;
33453;SDS011;39400;49.744;7.012;2022-08-03T16:08:41;2.50;;;1.92;;
33453;SDS011;39400;49.744;7.012;2022-08-03T16:11:09;4.03;;;1.92;;
33453;SDS011;39400;49.744;7.012;2022-08-03T16:13:36;9.10;;;2.08;;
33453;SDS011;39400;49.744;7.012;2022-08-03T16:18:51;2.45;;;1.90;;
33453;SDS011;39400;49.744;7.012;2022-08-03T16:21:18;3.28;;;1.85;;
33453;SDS011;39400;49.744;7.012;2022-08-03T16:23:50;3.38;;;1.88;;
33453;SDS011;39400;49.744;7.012;2022-08-03T16:26:17;5.50;;;2.10;;
33453;SDS011;39400;49.744;7.012;2022-08-03T16:28:44;3.20;;;2.10;;